sensor_id;sensor_type;location;lat;lon;timestamp;pressure;altitude;pressure_sealevel;temperature;humidity
7940;BME280;4015;48.888;9.226;2023-02-18T00:01:01;158370.25;;;12.45;79.12
7940;BME280;4015;48.888;9.226;2023-02-18T00:03:29;158365.09;;;12.42;79.74
7940;BME280;4015;48.888;9.226;2023-02-18T00:05:54;158360.00;;;12.40;79.71
7940;BME280;4015;48.888;9.226;2023-02-18T00:08:20;158394.53;;;12.54;79.48
7940;BME280;4015;48.888;9.226;2023-02-18T00:10:46;158413.69;;;12.62;78.53
7940;BME280;4015;48.888;9.226;2023-02-18T00:13:12;158374.06;;;12.46;79.54
7940;BME280;4015;48.888;9.226;2023-02-18T00:15:37;158379.16;;;12.48;79.21
7940;BME280;4015;48.888;9.226;2023-02-18T00:18:03;158356.19;;;12.39;79.62
7940;BME280;4015;48.888;9.226;2023-02-18T00:20:29;158340.81;;;12.33;79.85
7940;BME280;4015;48.888;9.226;2023-02-18T00:22:55;158351.03;;;12.37;80.03
7940;BME280;4015;48.888;9.226;2023-02-18T00:25:20;158340.81;;;12.33;80.38
7940;BME280;4015;48.888;9.226;2023-02-18T00:27:46;158360.00;;;12.40;79.74
7940;BME280;4015;48.888;9.226;2023-02-18T00:30:11;158348.47;;;12.36;80.03
7940;BME280;4015;48.888;9.226;2023-02-18T00:32:37;158358.72;;;12.40;79.96
7940;BME280;4015;48.888;9.226;2023-02-18T00:35:03;158360.00;;;12.40;79.80
7940;BME280;4015;48.888;9.226;2023-02-18T00:37:28;158331.84;;;12.29;80.26
7940;BME280;4015;48.888;9.226;2023-02-18T00:39:54;158336.94;;;12.31;80.24
7940;BME280;4015;48.888;9.226;2023-02-18T00:42:19;158331.84;;;12.29;80.61
7940;BME280;4015;48.888;9.226;2023-02-18T00:44:45;158345.94;;;12.35;79.96
7940;BME280;4015;48.888;9.226;2023-02-18T00:47:10;158336.94;;;12.31;80.09
7940;BME280;4015;48.888;9.226;2023-02-18T00:49:36;158351.03;;;12.37;79.96
7940;BME280;4015;48.888;9.226;2023-02-18T00:52:01;158338.22;;;12.32;80.22
7940;BME280;4015;48.888;9.226;2023-02-18T00:54:26;158362.56;;;12.41;79.65
7940;BME280;4015;48.888;9.226;2023-02-18T00:56:52;158367.66;;;12.43;79.42
7940;BME280;4015;48.888;9.226;2023-02-18T00:59:17;158370.25;;;12.45;79.16
7940;BME280;4015;48.888;9.226;2023-02-18T01:01:42;158363.81;;;12.42;79.41
7940;BME280;4015;48.888;9.226;2023-02-18T01:04:08;158375.34;;;12.47;79.19
7940;BME280;4015;48.888;9.226;2023-02-18T01:06:33;158399.63;;;12.56;78.55
7940;BME280;4015;48.888;9.226;2023-02-18T01:08:58;158372.78;;;12.46;79.13
7940;BME280;4015;48.888;9.226;2023-02-18T01:11:24;158379.16;;;12.48;79.07
7940;BME280;4015;48.888;9.226;2023-02-18T01:13:49;158390.69;;;12.53;78.92
7940;BME280;4015;48.888;9.226;2023-02-18T01:16:16;158393.25;;;12.54;79.02
7940;BME280;4015;48.888;9.226;2023-02-18T01:18:42;158371.53;;;12.45;78.96
7940;BME280;4015;48.888;9.226;2023-02-18T01:21:08;158383.00;;;12.50;79.07
7940;BME280;4015;48.888;9.226;2023-02-18T01:23:35;158398.34;;;12.56;78.95
7940;BME280;4015;48.888;9.226;2023-02-18T01:26:00;158383.00;;;12.50;79.03
7940;BME280;4015;48.888;9.226;2023-02-18T01:28:26;158386.88;;;12.51;79.10
7940;BME280;4015;48.888;9.226;2023-02-18T01:30:52;158388.16;;;12.52;79.29
7940;BME280;4015;48.888;9.226;2023-02-18T01:33:18;158391.97;;;12.53;78.87
7940;BME280;4015;48.888;9.226;2023-02-18T01:35:44;158374.06;;;12.46;79.05
7940;BME280;4015;48.888;9.226;2023-02-18T01:38:09;158366.38;;;12.43;79.13
7940;BME280;4015;48.888;9.226;2023-02-18T01:40:35;158353.56;;;12.38;79.42
7940;BME280;4015;48.888;9.226;2023-02-18T01:43:01;158344.66;;;12.34;79.59
7940;BME280;4015;48.888;9.226;2023-02-18T01:45:55;158352.31;;;12.37;79.40
7940;BME280;4015;48.888;9.226;2023-02-18T01:50:53;158333.13;;;12.30;79.55
7940;BME280;4015;48.888;9.226;2023-02-18T01:53:25;158319.06;;;12.24;79.88
7940;BME280;4015;48.888;9.226;2023-02-18T01:55:51;158311.41;;;12.21;79.94
7940;BME280;4015;48.888;9.226;2023-02-18T01:58:16;158302.44;;;12.18;80.48
7940;BME280;4015;48.888;9.226;2023-02-18T02:00:42;158285.81;;;12.11;80.72
7940;BME280;4015;48.888;9.226;2023-02-18T02:03:07;158297.34;;;12.15;80.58
7940;BME280;4015;48.888;9.226;2023-02-18T02:05:33;158297.34;;;12.15;80.17
7940;BME280;4015;48.888;9.226;2023-02-18T02:07:59;158246.22;;;11.95;80.67
7940;BME280;4015;48.888;9.226;2023-02-18T02:16:05;158294.78;;;12.14;80.46
7940;BME280;4015;48.888;9.226;2023-02-18T02:27:09;158269.19;;;12.04;80.58
7940;BME280;4015;48.888;9.226;2023-02-18T02:35:08;158280.72;;;12.09;80.45
7940;BME280;4015;48.888;9.226;2023-02-18T02:37:38;158279.44;;;12.08;80.36
7940;BME280;4015;48.888;9.226;2023-02-18T02:40:20;158266.66;;;12.03;80.52
7940;BME280;4015;48.888;9.226;2023-02-18T02:45:28;158298.63;;;12.16;80.10
7940;BME280;4015;48.888;9.226;2023-02-18T02:48:11;158307.59;;;12.20;79.95
7940;BME280;4015;48.888;9.226;2023-02-18T02:53:39;158308.84;;;12.20;79.97
7940;BME280;4015;48.888;9.226;2023-02-18T02:56:05;158275.63;;;12.07;80.03
7940;BME280;4015;48.888;9.226;2023-02-18T02:58:30;158289.63;;;12.12;79.89
7940;BME280;4015;48.888;9.226;2023-02-18T03:01:34;158260.28;;;12.01;80.96
7940;BME280;4015;48.888;9.226;2023-02-18T03:06:48;158290.91;;;12.13;79.43
7940;BME280;4015;48.888;9.226;2023-02-18T03:12:14;158267.94;;;12.04;79.78
7940;BME280;4015;48.888;9.226;2023-02-18T03:14:49;158276.91;;;12.07;79.54
7940;BME280;4015;48.888;9.226;2023-02-18T03:17:30;158275.63;;;12.07;79.33
7940;BME280;4015;48.888;9.226;2023-02-18T03:20:13;158252.56;;;11.98;79.33
7940;BME280;4015;48.888;9.226;2023-02-18T03:22:43;158256.41;;;11.99;79.65
7940;BME280;4015;48.888;9.226;2023-02-18T03:25:12;158285.81;;;12.11;78.86
7940;BME280;4015;48.888;9.226;2023-02-18T03:28:00;158301.16;;;12.17;78.43
7940;BME280;4015;48.888;9.226;2023-02-18T03:30:35;158287.09;;;12.11;78.63
7940;BME280;4015;48.888;9.226;2023-02-18T03:33:04;158296.06;;;12.15;78.36
7940;BME280;4015;48.888;9.226;2023-02-18T03:35:32;158279.44;;;12.08;78.43
7940;BME280;4015;48.888;9.226;2023-02-18T03:38:14;158273.03;;;12.06;78.61
7940;BME280;4015;48.888;9.226;2023-02-18T03:40:42;158266.66;;;12.03;78.63
7940;BME280;4015;48.888;9.226;2023-02-18T03:43:07;158260.28;;;12.01;78.58
7940;BME280;4015;48.888;9.226;2023-02-18T03:45:33;158242.34;;;11.94;78.68
7940;BME280;4015;48.888;9.226;2023-02-18T03:47:58;158256.41;;;11.99;78.82
7940;BME280;4015;48.888;9.226;2023-02-18T03:50:23;158271.75;;;12.05;78.51
7940;BME280;4015;48.888;9.226;2023-02-18T03:52:49;158251.31;;;11.97;78.65
7940;BME280;4015;48.888;9.226;2023-02-18T03:55:15;158215.53;;;11.83;79.32
7940;BME280;4015;48.888;9.226;2023-02-18T03:57:40;158252.56;;;11.98;79.10
7940;BME280;4015;48.888;9.226;2023-02-18T04:00:07;158247.47;;;11.96;79.16
7940;BME280;4015;48.888;9.226;2023-02-18T04:02:32;158248.75;;;11.96;79.37
7940;BME280;4015;48.888;9.226;2023-02-18T04:04:58;158227.00;;;11.87;79.60
7940;BME280;4015;48.888;9.226;2023-02-18T04:07:24;158229.59;;;11.88;79.51
7940;BME280;4015;48.888;9.226;2023-02-18T04:09:50;158179.66;;;11.69;80.53
7940;BME280;4015;48.888;9.226;2023-02-18T04:12:15;158168.19;;;11.64;80.70
7940;BME280;4015;48.888;9.226;2023-02-18T04:14:40;158137.50;;;11.52;81.26
7940;BME280;4015;48.888;9.226;2023-02-18T04:17:05;158118.34;;;11.44;81.56
7940;BME280;4015;48.888;9.226;2023-02-18T04:19:31;158120.88;;;11.45;81.39
7940;BME280;4015;48.888;9.226;2023-02-18T04:21:56;158097.84;;;11.36;81.46
7940;BME280;4015;48.888;9.226;2023-02-18T04:24:21;158065.91;;;11.23;81.98
7940;BME280;4015;48.888;9.226;2023-02-18T04:26:47;158055.72;;;11.19;82.38
7940;BME280;4015;48.888;9.226;2023-02-18T04:29:12;158050.56;;;11.17;81.75
7940;BME280;4015;48.888;9.226;2023-02-18T04:31:37;158059.53;;;11.21;81.92
7940;BME280;4015;48.888;9.226;2023-02-18T04:34:03;158040.38;;;11.13;81.96
7940;BME280;4015;48.888;9.226;2023-02-18T04:36:28;158037.78;;;11.12;82.07
7940;BME280;4015;48.888;9.226;2023-02-18T04:38:53;158059.53;;;11.21;81.70
7940;BME280;4015;48.888;9.226;2023-02-18T04:41:19;158063.34;;;11.22;81.40
7940;BME280;4015;48.888;9.226;2023-02-18T04:43:44;158055.72;;;11.19;81.39
7940;BME280;4015;48.888;9.226;2023-02-18T04:46:09;158088.94;;;11.32;81.13
7940;BME280;4015;48.888;9.226;2023-02-18T04:48:35;158086.38;;;11.31;81.24
7940;BME280;4015;48.888;9.226;2023-02-18T04:51:01;158097.84;;;11.36;80.93
7940;BME280;4015;48.888;9.226;2023-02-18T04:53:26;158088.94;;;11.32;80.99
7940;BME280;4015;48.888;9.226;2023-02-18T04:55:52;158086.38;;;11.31;81.02
7940;BME280;4015;48.888;9.226;2023-02-18T04:58:18;158096.59;;;11.35;80.77
7940;BME280;4015;48.888;9.226;2023-02-18T05:00:44;158079.97;;;11.29;80.60
7940;BME280;4015;48.888;9.226;2023-02-18T05:03:09;158079.97;;;11.29;81.01
7940;BME280;4015;48.888;9.226;2023-02-18T05:05:35;158094.03;;;11.34;80.49
7940;BME280;4015;48.888;9.226;2023-02-18T05:08:00;158067.19;;;11.24;80.82
7940;BME280;4015;48.888;9.226;2023-02-18T05:10:26;158033.97;;;11.11;81.16
7940;BME280;4015;48.888;9.226;2023-02-18T05:12:51;158008.44;;;11.00;81.67
7940;BME280;4015;48.888;9.226;2023-02-18T05:15:17;157993.09;;;10.94;81.72
7940;BME280;4015;48.888;9.226;2023-02-18T05:17:42;157999.47;;;10.97;81.49
7940;BME280;4015;48.888;9.226;2023-02-18T05:20:08;157994.38;;;10.95;81.64
7940;BME280;4015;48.888;9.226;2023-02-18T05:22:33;157972.63;;;10.86;82.04
7940;BME280;4015;48.888;9.226;2023-02-18T05:24:59;157966.25;;;10.84;82.13
7940;BME280;4015;48.888;9.226;2023-02-18T05:27:24;157984.13;;;10.91;81.64
7940;BME280;4015;48.888;9.226;2023-02-18T05:29:49;157972.63;;;10.86;81.61
7940;BME280;4015;48.888;9.226;2023-02-18T05:32:15;157959.84;;;10.81;81.66
7940;BME280;4015;48.888;9.226;2023-02-18T05:34:40;157957.28;;;10.80;81.84
7940;BME280;4015;48.888;9.226;2023-02-18T05:37:05;157958.56;;;10.80;81.97
7940;BME280;4015;48.888;9.226;2023-02-18T05:39:31;157966.25;;;10.84;81.81
7940;BME280;4015;48.888;9.226;2023-02-18T05:41:56;157963.72;;;10.83;81.64
7940;BME280;4015;48.888;9.226;2023-02-18T05:44:22;157949.66;;;10.77;81.33
7940;BME280;4015;48.888;9.226;2023-02-18T05:47:02;157904.94;;;10.59;81.99
7940;BME280;4015;48.888;9.226;2023-02-18T05:49:29;157904.94;;;10.59;82.24
7940;BME280;4015;48.888;9.226;2023-02-18T05:51:55;157920.25;;;10.65;82.10
7940;BME280;4015;48.888;9.226;2023-02-18T05:54:21;157906.22;;;10.60;82.33
7940;BME280;4015;48.888;9.226;2023-02-18T05:56:46;157913.91;;;10.63;82.12
7940;BME280;4015;48.888;9.226;2023-02-18T05:59:12;157949.66;;;10.77;82.01
7940;BME280;4015;48.888;9.226;2023-02-18T06:01:37;157919.00;;;10.65;82.00
7940;BME280;4015;48.888;9.226;2023-02-18T06:04:03;157908.75;;;10.61;81.96
7940;BME280;4015;48.888;9.226;2023-02-18T06:06:28;157944.56;;;10.75;81.70
7940;BME280;4015;48.888;9.226;2023-02-18T06:08:54;157964.97;;;10.83;81.29
7940;BME280;4015;48.888;9.226;2023-02-18T06:11:19;157929.22;;;10.69;81.85
7940;BME280;4015;48.888;9.226;2023-02-18T06:13:44;157940.69;;;10.73;81.69
7940;BME280;4015;48.888;9.226;2023-02-18T06:16:10;157967.53;;;10.84;81.69
7940;BME280;4015;48.888;9.226;2023-02-18T06:18:35;157957.28;;;10.80;81.80
7940;BME280;4015;48.888;9.226;2023-02-18T06:21:01;157913.91;;;10.63;82.47
7940;BME280;4015;48.888;9.226;2023-02-18T06:23:26;157912.56;;;10.62;82.80
7940;BME280;4015;48.888;9.226;2023-02-18T06:25:51;157967.53;;;10.84;82.34
7940;BME280;4015;48.888;9.226;2023-02-18T06:28:17;157964.97;;;10.83;82.08
7940;BME280;4015;48.888;9.226;2023-02-18T06:30:43;157984.13;;;10.91;81.87
7940;BME280;4015;48.888;9.226;2023-02-18T06:33:08;157973.91;;;10.87;81.96
7940;BME280;4015;48.888;9.226;2023-02-18T06:35:34;157944.56;;;10.75;82.37
7940;BME280;4015;48.888;9.226;2023-02-18T06:37:59;157952.19;;;10.78;82.42
7940;BME280;4015;48.888;9.226;2023-02-18T06:40:25;157934.31;;;10.71;82.51
7940;BME280;4015;48.888;9.226;2023-02-18T06:42:51;157945.84;;;10.75;82.77
7940;BME280;4015;48.888;9.226;2023-02-18T06:45:16;157927.91;;;10.68;83.14
7940;BME280;4015;48.888;9.226;2023-02-18T06:47:41;157929.22;;;10.69;83.30
7940;BME280;4015;48.888;9.226;2023-02-18T06:50:07;157956.03;;;10.79;82.76
7940;BME280;4015;48.888;9.226;2023-02-18T06:52:33;157967.53;;;10.84;82.60
7940;BME280;4015;48.888;9.226;2023-02-18T06:54:59;157982.84;;;10.90;82.72
7940;BME280;4015;48.888;9.226;2023-02-18T06:57:24;157964.97;;;10.83;83.00
7940;BME280;4015;48.888;9.226;2023-02-18T06:59:49;157986.69;;;10.92;82.82
7940;BME280;4015;48.888;9.226;2023-02-18T07:02:15;158040.38;;;11.13;82.20
7940;BME280;4015;48.888;9.226;2023-02-18T07:04:40;157996.94;;;10.96;82.87
7940;BME280;4015;48.888;9.226;2023-02-18T07:07:05;157994.38;;;10.95;83.03
7940;BME280;4015;48.888;9.226;2023-02-18T07:09:31;157975.16;;;10.87;83.50
7940;BME280;4015;48.888;9.226;2023-02-18T07:11:57;158022.44;;;11.06;83.29
7940;BME280;4015;48.888;9.226;2023-02-18T07:14:22;158030.13;;;11.09;83.01
7940;BME280;4015;48.888;9.226;2023-02-18T07:16:49;158031.41;;;11.10;83.06
7940;BME280;4015;48.888;9.226;2023-02-18T07:19:14;158035.22;;;11.11;83.35
7940;BME280;4015;48.888;9.226;2023-02-18T07:21:40;158103.00;;;11.38;82.76
7940;BME280;4015;48.888;9.226;2023-02-18T07:24:05;158087.66;;;11.32;82.96
7940;BME280;4015;48.888;9.226;2023-02-18T07:26:30;158138.78;;;11.52;82.32
7940;BME280;4015;48.888;9.226;2023-02-18T07:28:56;158129.81;;;11.49;81.90
7940;BME280;4015;48.888;9.226;2023-02-18T07:31:21;158086.38;;;11.31;83.03
7940;BME280;4015;48.888;9.226;2023-02-18T07:33:46;158097.84;;;11.36;83.02
7940;BME280;4015;48.888;9.226;2023-02-18T07:36:12;158109.38;;;11.41;82.58
7940;BME280;4015;48.888;9.226;2023-02-18T07:38:37;158111.91;;;11.42;82.53
7940;BME280;4015;48.888;9.226;2023-02-18T07:41:03;158111.91;;;11.42;82.48
7940;BME280;4015;48.888;9.226;2023-02-18T07:43:28;158138.78;;;11.52;81.50
7940;BME280;4015;48.888;9.226;2023-02-18T07:45:53;158159.22;;;11.60;81.13
7940;BME280;4015;48.888;9.226;2023-02-18T07:48:19;158161.75;;;11.61;81.47
7940;BME280;4015;48.888;9.226;2023-02-18T07:50:45;158184.78;;;11.71;80.65
7940;BME280;4015;48.888;9.226;2023-02-18T07:53:11;158203.97;;;11.78;80.01
7940;BME280;4015;48.888;9.226;2023-02-18T07:55:37;158238.50;;;11.92;80.13
7940;BME280;4015;48.888;9.226;2023-02-18T08:00:45;158228.31;;;11.88;80.44
7940;BME280;4015;48.888;9.226;2023-02-18T08:03:18;158258.94;;;12.00;79.49
7940;BME280;4015;48.888;9.226;2023-02-18T08:05:44;158296.06;;;12.15;79.00
7940;BME280;4015;48.888;9.226;2023-02-18T08:08:15;158310.13;;;12.21;78.60
7940;BME280;4015;48.888;9.226;2023-02-18T08:10:41;158296.06;;;12.15;78.73
7940;BME280;4015;48.888;9.226;2023-02-18T08:13:07;158283.28;;;12.10;79.11
7940;BME280;4015;48.888;9.226;2023-02-18T08:15:33;158289.63;;;12.12;78.80
7940;BME280;4015;48.888;9.226;2023-02-18T08:17:58;158298.63;;;12.16;78.63
7940;BME280;4015;48.888;9.226;2023-02-18T08:20:24;158296.06;;;12.15;79.30
7940;BME280;4015;48.888;9.226;2023-02-18T08:22:50;158298.63;;;12.16;79.21
7940;BME280;4015;48.888;9.226;2023-02-18T08:25:15;158313.97;;;12.22;78.59
7940;BME280;4015;48.888;9.226;2023-02-18T08:27:40;158379.16;;;12.48;78.13
7940;BME280;4015;48.888;9.226;2023-02-18T08:30:06;158408.59;;;12.60;77.11
7940;BME280;4015;48.888;9.226;2023-02-18T08:32:32;158418.84;;;12.64;76.93
7940;BME280;4015;48.888;9.226;2023-02-18T08:34:57;158431.59;;;12.69;76.49
7940;BME280;4015;48.888;9.226;2023-02-18T08:37:22;158489.16;;;12.92;75.28
7940;BME280;4015;48.888;9.226;2023-02-18T08:39:48;158540.34;;;13.12;73.83
7940;BME280;4015;48.888;9.226;2023-02-18T08:42:14;158544.22;;;13.14;73.95
7940;BME280;4015;48.888;9.226;2023-02-18T08:44:39;158542.88;;;13.13;73.57
7940;BME280;4015;48.888;9.226;2023-02-18T08:47:04;158603.09;;;13.37;73.45
7940;BME280;4015;48.888;9.226;2023-02-18T08:49:30;158631.25;;;13.48;73.14
7940;BME280;4015;48.888;9.226;2023-02-18T08:51:55;158650.44;;;13.56;71.65
7940;BME280;4015;48.888;9.226;2023-02-18T08:54:20;158682.44;;;13.69;71.25
7940;BME280;4015;48.888;9.226;2023-02-18T08:56:46;158654.31;;;13.58;72.52
7940;BME280;4015;48.888;9.226;2023-02-18T08:59:11;158706.75;;;13.79;71.04
7940;BME280;4015;48.888;9.226;2023-02-18T09:01:37;158667.06;;;13.63;71.53
7940;BME280;4015;48.888;9.226;2023-02-18T09:04:02;158706.75;;;13.79;71.65
7940;BME280;4015;48.888;9.226;2023-02-18T09:06:28;158736.22;;;13.90;70.86
7940;BME280;4015;48.888;9.226;2023-02-18T09:08:53;158727.22;;;13.87;71.03
7940;BME280;4015;48.888;9.226;2023-02-18T09:11:18;158714.41;;;13.82;71.38
7940;BME280;4015;48.888;9.226;2023-02-18T09:13:44;158763.06;;;14.01;70.39
7940;BME280;4015;48.888;9.226;2023-02-18T09:16:15;158738.75;;;13.91;70.80
7940;BME280;4015;48.888;9.226;2023-02-18T09:18:46;158751.56;;;13.96;71.00
7940;BME280;4015;48.888;9.226;2023-02-18T09:21:13;158749.03;;;13.95;72.10
7940;BME280;4015;48.888;9.226;2023-02-18T09:23:39;158786.13;;;14.10;71.16
7940;BME280;4015;48.888;9.226;2023-02-18T09:26:07;158819.41;;;14.23;71.02
7940;BME280;4015;48.888;9.226;2023-02-18T09:28:34;158837.31;;;14.30;70.55
7940;BME280;4015;48.888;9.226;2023-02-18T09:31:07;158864.22;;;14.41;70.23
7940;BME280;4015;48.888;9.226;2023-02-18T09:33:35;158924.47;;;14.65;69.59
7940;BME280;4015;48.888;9.226;2023-02-18T09:36:01;158901.41;;;14.56;68.45
7940;BME280;4015;48.888;9.226;2023-02-18T09:38:27;159083.28;;;15.28;68.11
7940;BME280;4015;48.888;9.226;2023-02-18T09:40:53;159192.25;;;15.72;65.37
7940;BME280;4015;48.888;9.226;2023-02-18T09:43:28;159140.91;;;15.51;66.83
7940;BME280;4015;48.888;9.226;2023-02-18T09:45:56;159166.56;;;15.61;66.11
7940;BME280;4015;48.888;9.226;2023-02-18T09:48:31;159216.59;;;15.81;65.31
7940;BME280;4015;48.888;9.226;2023-02-18T09:50:58;159266.56;;;16.01;65.38
7940;BME280;4015;48.888;9.226;2023-02-18T09:53:24;159329.34;;;16.26;63.88
7940;BME280;4015;48.888;9.226;2023-02-18T09:55:51;159173.00;;;15.64;66.28
7940;BME280;4015;48.888;9.226;2023-02-18T09:58:24;159143.47;;;15.52;65.68
7940;BME280;4015;48.888;9.226;2023-02-18T10:01:11;159273.00;;;16.04;65.31
7940;BME280;4015;48.888;9.226;2023-02-18T10:03:40;159179.44;;;15.67;65.98
7940;BME280;4015;48.888;9.226;2023-02-18T10:06:17;159125.53;;;15.45;66.59
7940;BME280;4015;48.888;9.226;2023-02-18T10:08:48;159182.00;;;15.68;65.34
7940;BME280;4015;48.888;9.226;2023-02-18T10:13:44;159021.81;;;15.04;67.56
7940;BME280;4015;48.888;9.226;2023-02-18T10:16:15;158964.16;;;14.81;68.95
7940;BME280;4015;48.888;9.226;2023-02-18T10:18:44;158974.41;;;14.85;68.14
7940;BME280;4015;48.888;9.226;2023-02-18T10:21:14;158946.22;;;14.74;67.13
7940;BME280;4015;48.888;9.226;2023-02-18T10:23:44;158933.41;;;14.69;68.52
7940;BME280;4015;48.888;9.226;2023-02-18T10:26:16;158912.94;;;14.61;67.72
7940;BME280;4015;48.888;9.226;2023-02-18T10:28:43;158962.88;;;14.80;67.21
7940;BME280;4015;48.888;9.226;2023-02-18T10:31:13;158979.50;;;14.87;67.93
7940;BME280;4015;48.888;9.226;2023-02-18T10:33:46;159009.00;;;14.99;67.18
7940;BME280;4015;48.888;9.226;2023-02-18T10:39:24;159016.66;;;15.02;66.64
7940;BME280;4015;48.888;9.226;2023-02-18T10:45:18;158953.88;;;14.77;66.83
7940;BME280;4015;48.888;9.226;2023-02-18T10:47:55;158919.31;;;14.63;66.87
7940;BME280;4015;48.888;9.226;2023-02-18T10:50:27;158920.59;;;14.64;66.35
7940;BME280;4015;48.888;9.226;2023-02-18T10:52:59;158944.94;;;14.73;67.07
7940;BME280;4015;48.888;9.226;2023-02-18T10:55:41;158998.72;;;14.95;67.29
7940;BME280;4015;48.888;9.226;2023-02-18T11:01:22;159003.88;;;14.97;66.46
7940;BME280;4015;48.888;9.226;2023-02-18T11:03:48;159043.56;;;15.13;66.18
7940;BME280;4015;48.888;9.226;2023-02-18T11:06:23;159028.19;;;15.06;65.83
7940;BME280;4015;48.888;9.226;2023-02-18T11:08:52;159024.34;;;15.05;66.19
7940;BME280;4015;48.888;9.226;2023-02-18T11:11:29;159041.00;;;15.11;66.08
7940;BME280;4015;48.888;9.226;2023-02-18T11:13:58;158983.34;;;14.89;66.40
7940;BME280;4015;48.888;9.226;2023-02-18T11:16:39;159046.13;;;15.14;65.16
7940;BME280;4015;48.888;9.226;2023-02-18T11:19:33;159098.66;;;15.34;65.29
7940;BME280;4015;48.888;9.226;2023-02-18T11:22:14;159066.66;;;15.22;65.29
7940;BME280;4015;48.888;9.226;2023-02-18T11:24:43;159107.59;;;15.38;63.58
7940;BME280;4015;48.888;9.226;2023-02-18T11:30:21;159065.38;;;15.21;64.07
7940;BME280;4015;48.888;9.226;2023-02-18T11:32:49;159107.59;;;15.38;63.68
7940;BME280;4015;48.888;9.226;2023-02-18T11:35:21;159050.00;;;15.15;64.39
7940;BME280;4015;48.888;9.226;2023-02-18T11:37:48;159025.63;;;15.05;64.21
7940;BME280;4015;48.888;9.226;2023-02-18T11:40:22;159012.81;;;15.00;63.67
7940;BME280;4015;48.888;9.226;2023-02-18T11:42:50;159034.63;;;15.09;64.57
7940;BME280;4015;48.888;9.226;2023-02-18T11:45:29;159029.47;;;15.07;64.86
7940;BME280;4015;48.888;9.226;2023-02-18T11:48:00;159020.53;;;15.03;64.69
7940;BME280;4015;48.888;9.226;2023-02-18T11:50:30;159061.50;;;15.20;63.92
7940;BME280;4015;48.888;9.226;2023-02-18T11:52:55;159129.41;;;15.47;63.14
7940;BME280;4015;48.888;9.226;2023-02-18T11:55:25;159114.03;;;15.41;62.97
7940;BME280;4015;48.888;9.226;2023-02-18T11:57:59;159080.75;;;15.27;64.19
7940;BME280;4015;48.888;9.226;2023-02-18T12:00:36;159075.59;;;15.25;63.68
7940;BME280;4015;48.888;9.226;2023-02-18T12:03:14;159107.59;;;15.38;63.96
7940;BME280;4015;48.888;9.226;2023-02-18T12:05:43;159124.25;;;15.45;63.51
7940;BME280;4015;48.888;9.226;2023-02-18T12:08:26;159069.19;;;15.23;63.18
7940;BME280;4015;48.888;9.226;2023-02-18T12:10:54;159015.38;;;15.01;64.17
7940;BME280;4015;48.888;9.226;2023-02-18T12:13:39;159006.44;;;14.98;64.65
7940;BME280;4015;48.888;9.226;2023-02-18T12:25:01;159283.22;;;16.08;61.22
7940;BME280;4015;48.888;9.226;2023-02-18T12:37:51;159389.63;;;16.50;58.92
7940;BME280;4015;48.888;9.226;2023-02-18T12:40:48;159242.22;;;15.91;61.39
7940;BME280;4015;48.888;9.226;2023-02-18T12:46:11;159061.50;;;15.20;63.22
7940;BME280;4015;48.888;9.226;2023-02-18T12:59:11;158979.50;;;14.87;64.82
7940;BME280;4015;48.888;9.226;2023-02-18T13:04:36;158982.06;;;14.88;65.95
7940;BME280;4015;48.888;9.226;2023-02-18T13:07:33;158984.63;;;14.89;65.61
7940;BME280;4015;48.888;9.226;2023-02-18T13:13:18;158907.81;;;14.59;65.21
7940;BME280;4015;48.888;9.226;2023-02-18T13:16:00;158912.94;;;14.61;65.63
7940;BME280;4015;48.888;9.226;2023-02-18T13:18:30;158923.19;;;14.65;66.50
7940;BME280;4015;48.888;9.226;2023-02-18T13:21:03;158927.03;;;14.66;66.13
7940;BME280;4015;48.888;9.226;2023-02-18T13:23:34;158937.25;;;14.70;65.67
7940;BME280;4015;48.888;9.226;2023-02-18T13:26:04;158961.59;;;14.80;65.32
7940;BME280;4015;48.888;9.226;2023-02-18T13:28:39;158952.59;;;14.76;65.73
7940;BME280;4015;48.888;9.226;2023-02-18T13:37:00;158944.94;;;14.73;65.30
7940;BME280;4015;48.888;9.226;2023-02-18T13:39:29;158950.06;;;14.75;66.41
7940;BME280;4015;48.888;9.226;2023-02-18T13:42:18;158976.97;;;14.86;65.82
7940;BME280;4015;48.888;9.226;2023-02-18T13:47:42;158996.16;;;14.94;65.27
7940;BME280;4015;48.888;9.226;2023-02-18T13:55:41;159238.34;;;15.90;63.15
7940;BME280;4015;48.888;9.226;2023-02-18T13:58:47;159558.94;;;17.17;59.19
7940;BME280;4015;48.888;9.226;2023-02-18T14:01:20;159720.59;;;17.82;57.25
7940;BME280;4015;48.888;9.226;2023-02-18T14:06:20;159755.22;;;17.95;57.08
7940;BME280;4015;48.888;9.226;2023-02-18T14:08:48;159542.28;;;17.11;58.83
7940;BME280;4015;48.888;9.226;2023-02-18T14:16:05;159370.41;;;16.42;61.11
7940;BME280;4015;48.888;9.226;2023-02-18T14:26:08;159146.06;;;15.53;63.42
7940;BME280;4015;48.888;9.226;2023-02-18T14:31:05;159061.50;;;15.20;64.70
7940;BME280;4015;48.888;9.226;2023-02-18T14:39:10;159139.63;;;15.51;64.69
7940;BME280;4015;48.888;9.226;2023-02-18T14:48:00;159078.13;;;15.26;67.10
7940;BME280;4015;48.888;9.226;2023-02-18T14:50:32;159096.06;;;15.33;67.18
7940;BME280;4015;48.888;9.226;2023-02-18T14:53:03;159058.94;;;15.19;67.31
7940;BME280;4015;48.888;9.226;2023-02-18T14:55:33;158993.63;;;14.93;67.63
7940;BME280;4015;48.888;9.226;2023-02-18T14:58:01;159015.38;;;15.01;67.83
7940;BME280;4015;48.888;9.226;2023-02-18T15:00:29;158985.94;;;14.90;68.32
7940;BME280;4015;48.888;9.226;2023-02-18T15:02:59;158933.41;;;14.69;68.59
7940;BME280;4015;48.888;9.226;2023-02-18T15:05:28;158961.59;;;14.80;68.27
7940;BME280;4015;48.888;9.226;2023-02-18T15:10:40;158882.19;;;14.48;68.79
7940;BME280;4015;48.888;9.226;2023-02-18T15:13:28;158893.75;;;14.53;68.43
7940;BME280;4015;48.888;9.226;2023-02-18T15:15:58;158848.88;;;14.35;68.97
7940;BME280;4015;48.888;9.226;2023-02-18T15:18:30;158824.50;;;14.25;68.76
7940;BME280;4015;48.888;9.226;2023-02-18T15:21:00;158813.03;;;14.21;69.27
7940;BME280;4015;48.888;9.226;2023-02-18T15:23:26;158784.84;;;14.10;70.32
7940;BME280;4015;48.888;9.226;2023-02-18T15:25:53;158783.56;;;14.09;69.33
7940;BME280;4015;48.888;9.226;2023-02-18T15:28:30;158772.03;;;14.04;69.68
7940;BME280;4015;48.888;9.226;2023-02-18T15:31:01;158761.78;;;14.00;70.20
7940;BME280;4015;48.888;9.226;2023-02-18T15:33:27;158770.75;;;14.04;70.47